Time;durP1;ratioP1;P1;durP2;ratioP2;P2;SDS_P1;SDS_P2;PMS_P1;PMS_P2;Temp;Humidity;BMP_temperature;BMP_pressure;BME280_temperature;BME280_humidity;BME280_pressure;Samples;Min_cycle;Max_cycle;Signal;HPM_P1;HPM_P2
2023/07/08 00:00:49;;;;;;;5.38;2.50;;;;;;;;;;4973684;28;20268;-60
2023/07/08 00:03:14;;;;;;;7.65;2.70;;;;;;;;;;4973120;28;20625;-60
2023/07/08 00:05:40;;;;;;;5.15;2.58;;;;;;;;;;4956786;28;20241;-60
2023/07/08 00:08:05;;;;;;;5.85;3.00;;;;;;;;;;4972788;28;20229;-61
2023/07/08 00:10:30;;;;;;;6.07;2.75;;;;;;;;;;4973283;28;20743;-60
2023/07/08 00:12:57;;;;;;;5.35;2.60;;;;;;;;;;4973519;28;20210;-60
2023/07/08 00:15:24;;;;;;;4.60;2.53;;;;;;;;;;4972554;28;20213;-61
2023/07/08 00:17:49;;;;;;;4.78;2.40;;;;;;;;;;4973004;28;20236;-60
2023/07/08 00:20:19;;;;;;;5.25;2.42;;;;;;;;;;4972647;28;20221;-61
2023/07/08 00:22:46;;;;;;;6.47;2.50;;;;;;;;;;4964230;28;20297;-61
2023/07/08 00:25:12;;;;;;;6.10;2.85;;;;;;;;;;4970317;28;20264;-61
2023/07/08 00:27:38;;;;;;;7.57;2.67;;;;;;;;;;4972625;28;20209;-60
2023/07/08 00:30:08;;;;;;;4.45;2.47;;;;;;;;;;4972870;28;20249;-61
2023/07/08 00:32:33;;;;;;;6.47;2.60;;;;;;;;;;4955999;28;20253;-61
2023/07/08 00:34:59;;;;;;;7.85;2.97;;;;;;;;;;4972677;28;20740;-61
2023/07/08 00:37:30;;;;;;;4.32;2.58;;;;;;;;;;4972919;28;20225;-61
2023/07/08 00:39:55;;;;;;;5.43;2.80;;;;;;;;;;4973204;28;20747;-60
2023/07/08 00:42:21;;;;;;;5.03;2.60;;;;;;;;;;4971919;28;20213;-60
2023/07/08 00:44:46;;;;;;;6.03;2.63;;;;;;;;;;4956514;28;20694;-60
2023/07/08 00:47:12;;;;;;;4.80;3.00;;;;;;;;;;4971494;28;20688;-60
2023/07/08 00:49:45;;;;;;;7.30;2.95;;;;;;;;;;4972590;28;20206;-61
2023/07/08 00:52:15;;;;;;;7.80;2.97;;;;;;;;;;4972498;28;20213;-61
2023/07/08 00:54:41;;;;;;;5.43;2.75;;;;;;;;;;4972032;28;20214;-61
2023/07/08 00:57:06;;;;;;;9.25;2.53;;;;;;;;;;4971799;28;20214;-61
2023/07/08 00:59:33;;;;;;;6.03;2.88;;;;;;;;;;4972898;28;20236;-60
2023/07/08 01:02:00;;;;;;;8.27;2.55;;;;;;;;;;4973117;28;20289;-60
2023/07/08 01:04:26;;;;;;;6.63;2.90;;;;;;;;;;4972030;28;20210;-60
2023/07/08 01:06:57;;;;;;;5.90;2.60;;;;;;;;;;4972625;28;20272;-60
2023/07/08 01:09:22;;;;;;;7.28;2.95;;;;;;;;;;4972260;28;20214;-60
2023/07/08 01:11:47;;;;;;;6.93;2.90;;;;;;;;;;4954960;28;20642;-61
2023/07/08 01:14:14;;;;;;;5.38;3.05;;;;;;;;;;4971916;28;20213;-61
2023/07/08 01:16:39;;;;;;;7.90;2.60;;;;;;;;;;4954909;28;20671;-61
2023/07/08 01:19:04;;;;;;;4.70;2.50;;;;;;;;;;4971786;28;20349;-61
2023/07/08 01:21:34;;;;;;;6.88;2.78;;;;;;;;;;4955074;28;20221;-61
2023/07/08 01:24:00;;;;;;;7.75;3.03;;;;;;;;;;4972063;28;20222;-61
2023/07/08 01:26:25;;;;;;;6.00;2.85;;;;;;;;;;4954681;28;20209;-61
2023/07/08 01:28:52;;;;;;;7.43;3.08;;;;;;;;;;4954979;28;20583;-61
2023/07/08 01:31:17;;;;;;;6.57;3.15;;;;;;;;;;4971179;28;20719;-60
2023/07/08 01:33:43;;;;;;;8.43;3.42;;;;;;;;;;4955141;28;20222;-60
2023/07/08 01:36:10;;;;;;;5.63;2.88;;;;;;;;;;4971316;28;20659;-60
2023/07/08 01:38:36;;;;;;;5.47;2.67;;;;;;;;;;4971625;28;20303;-60
2023/07/08 01:41:01;;;;;;;5.85;2.92;;;;;;;;;;4954422;28;20245;-61
2023/07/08 01:43:26;;;;;;;5.95;3.15;;;;;;;;;;4972124;28;20213;-60
2023/07/08 01:45:52;;;;;;;8.00;2.80;;;;;;;;;;4971419;28;20309;-60
2023/07/08 01:48:18;;;;;;;5.85;3.03;;;;;;;;;;4971284;28;20263;-61
2023/07/08 01:50:46;;;;;;;6.97;3.13;;;;;;;;;;4954595;28;20669;-60
2023/07/08 01:53:14;;;;;;;7.70;2.95;;;;;;;;;;4970863;28;20213;-61
2023/07/08 01:55:40;;;;;;;6.55;2.75;;;;;;;;;;4971758;28;20276;-61
2023/07/08 01:58:05;;;;;;;5.18;2.83;;;;;;;;;;4971317;28;20568;-60
2023/07/08 02:00:30;;;;;;;4.25;2.60;;;;;;;;;;4971256;28;20249;-61
2023/07/08 02:02:55;;;;;;;6.57;2.83;;;;;;;;;;4971587;28;20739;-61
2023/07/08 02:05:22;;;;;;;5.97;2.80;;;;;;;;;;4970950;28;20322;-61
2023/07/08 02:07:47;;;;;;;6.13;3.10;;;;;;;;;;4971481;28;20739;-61
2023/07/08 02:10:12;;;;;;;6.15;2.72;;;;;;;;;;4971106;28;20226;-60
2023/07/08 02:12:38;;;;;;;4.57;2.85;;;;;;;;;;4971853;28;20214;-60
2023/07/08 02:15:04;;;;;;;7.55;2.97;;;;;;;;;;4970622;28;20650;-61
2023/07/08 02:17:29;;;;;;;6.15;2.85;;;;;;;;;;4971477;28;20658;-61
2023/07/08 02:19:55;;;;;;;6.18;3.08;;;;;;;;;;4971515;28;20225;-60
2023/07/08 02:22:20;;;;;;;6.18;2.75;;;;;;;;;;4970757;28;20276;-61
2023/07/08 02:24:45;;;;;;;4.50;2.80;;;;;;;;;;4971321;28;20684;-61
2023/07/08 02:27:11;;;;;;;5.57;2.80;;;;;;;;;;4970413;28;20236;-60
2023/07/08 02:29:38;;;;;;;4.53;3.00;;;;;;;;;;4971236;28;20209;-61
2023/07/08 02:32:03;;;;;;;9.50;3.50;;;;;;;;;;4970847;28;20279;-61
2023/07/08 02:34:29;;;;;;;5.40;2.85;;;;;;;;;;4971004;28;20268;-60
2023/07/08 02:36:56;;;;;;;6.68;3.00;;;;;;;;;;4971375;28;20210;-60
2023/07/08 02:39:21;;;;;;;4.97;3.00;;;;;;;;;;4970751;28;20692;-60
2023/07/08 02:41:46;;;;;;;4.68;2.95;;;;;;;;;;4970773;28;20216;-61
2023/07/08 02:44:12;;;;;;;6.00;3.10;;;;;;;;;;4970562;28;20291;-61
2023/07/08 02:46:37;;;;;;;5.57;2.80;;;;;;;;;;4961373;28;20207;-61
2023/07/08 02:49:04;;;;;;;9.05;3.10;;;;;;;;;;4952063;28;20236;-60
2023/07/08 02:51:29;;;;;;;4.45;3.00;;;;;;;;;;4950197;28;20421;-60
2023/07/08 02:53:54;;;;;;;7.32;2.88;;;;;;;;;;4940311;28;20733;-61
2023/07/08 02:56:20;;;;;;;5.88;2.97;;;;;;;;;;4957660;28;20657;-60
2023/07/08 02:58:46;;;;;;;6.55;3.13;;;;;;;;;;4966841;28;20225;-61
2023/07/08 03:01:11;;;;;;;7.70;3.15;;;;;;;;;;4966535;28;20270;-61
2023/07/08 03:03:37;;;;;;;5.53;2.95;;;;;;;;;;4962920;28;20593;-61
2023/07/08 03:06:05;;;;;;;5.30;2.78;;;;;;;;;;4947043;28;20609;-61
2023/07/08 03:08:30;;;;;;;6.05;2.80;;;;;;;;;;4964633;28;20201;-61
2023/07/08 03:10:57;;;;;;;6.68;3.10;;;;;;;;;;4944844;28;20276;-61
2023/07/08 03:13:22;;;;;;;6.25;2.72;;;;;;;;;;4958301;28;20276;-60
2023/07/08 03:15:48;;;;;;;6.85;2.97;;;;;;;;;;4948869;28;20222;-61
2023/07/08 03:18:13;;;;;;;6.90;2.80;;;;;;;;;;4941317;28;20252;-61
2023/07/08 03:20:40;;;;;;;5.88;2.70;;;;;;;;;;4951057;28;20214;-60
2023/07/08 03:23:05;;;;;;;4.20;2.63;;;;;;;;;;4966190;28;20680;-60
2023/07/08 03:25:30;;;;;;;5.63;2.90;;;;;;;;;;4955513;28;20220;-61
2023/07/08 03:27:57;;;;;;;5.50;2.75;;;;;;;;;;4947695;28;20320;-61
2023/07/08 03:30:22;;;;;;;6.13;3.15;;;;;;;;;;4964756;28;20321;-61
2023/07/08 03:32:48;;;;;;;4.97;2.67;;;;;;;;;;4966048;28;20333;-60
2023/07/08 03:35:13;;;;;;;5.65;2.78;;;;;;;;;;4957894;28;20534;-61
2023/07/08 03:37:38;;;;;;;6.30;2.83;;;;;;;;;;4958156;28;20229;-61
2023/07/08 03:40:04;;;;;;;4.90;2.78;;;;;;;;;;4958394;28;20428;-61
2023/07/08 03:42:29;;;;;;;6.60;2.63;;;;;;;;;;4966101;28;20229;-61
2023/07/08 03:44:54;;;;;;;5.05;3.10;;;;;;;;;;4960978;28;20214;-61
2023/07/08 03:47:20;;;;;;;4.72;2.95;;;;;;;;;;4946746;28;20226;-60
2023/07/08 03:49:45;;;;;;;5.00;2.88;;;;;;;;;;4947314;28;20334;-61
2023/07/08 03:52:13;;;;;;;6.10;3.08;;;;;;;;;;4946316;28;20770;-61
2023/07/08 03:54:38;;;;;;;7.38;3.33;;;;;;;;;;4945439;28;20421;-61
2023/07/08 03:57:03;;;;;;;6.03;2.70;;;;;;;;;;4940890;28;20248;-60
2023/07/08 03:59:29;;;;;;;5.10;2.75;;;;;;;;;;4969752;28;20225;-60
2023/07/08 04:01:54;;;;;;;5.93;3.00;;;;;;;;;;4973377;28;20418;-61
2023/07/08 04:04:19;;;;;;;5.80;2.50;;;;;;;;;;4974616;28;20273;-61
2023/07/08 04:06:45;;;;;;;8.30;3.13;;;;;;;;;;4974882;28;20210;-61
2023/07/08 04:09:10;;;;;;;6.55;2.90;;;;;;;;;;4973313;28;20708;-61
2023/07/08 04:11:36;;;;;;;5.88;2.88;;;;;;;;;;4973341;28;20194;-61
2023/07/08 04:14:01;;;;;;;4.88;2.90;;;;;;;;;;4972447;28;20210;-61
2023/07/08 04:16:29;;;;;;;6.15;2.70;;;;;;;;;;4972673;28;20205;-61
2023/07/08 04:18:55;;;;;;;6.32;2.85;;;;;;;;;;4955849;28;20221;-61
2023/07/08 04:21:21;;;;;;;7.22;3.00;;;;;;;;;;4955027;28;20217;-61
2023/07/08 04:23:46;;;;;;;6.70;2.80;;;;;;;;;;4972998;28;20212;-61
2023/07/08 04:26:11;;;;;;;4.90;2.95;;;;;;;;;;4972407;28;20216;-61
2023/07/08 04:28:37;;;;;;;8.63;2.92;;;;;;;;;;4972311;28;20225;-61
2023/07/08 04:31:03;;;;;;;7.13;2.90;;;;;;;;;;4954558;28;20266;-62
2023/07/08 04:33:29;;;;;;;5.30;2.70;;;;;;;;;;4973218;28;20221;-61
2023/07/08 04:35:54;;;;;;;8.10;3.08;;;;;;;;;;4972982;28;20213;-61
2023/07/08 04:38:21;;;;;;;6.43;2.80;;;;;;;;;;4972865;28;20324;-60
2023/07/08 04:40:47;;;;;;;5.15;3.00;;;;;;;;;;4972775;28;20225;-61
2023/07/08 04:43:13;;;;;;;6.75;2.88;;;;;;;;;;4972848;28;20610;-60
2023/07/08 04:45:39;;;;;;;6.60;2.60;;;;;;;;;;4972798;28;20348;-61
2023/07/08 04:48:12;;;;;;;5.78;2.92;;;;;;;;;;4972074;28;20748;-61
2023/07/08 04:50:39;;;;;;;6.07;2.80;;;;;;;;;;4973025;28;20237;-61
2023/07/08 04:53:04;;;;;;;6.78;3.10;;;;;;;;;;4972543;28;20581;-60
2023/07/08 04:55:29;;;;;;;6.70;2.92;;;;;;;;;;4972198;28;20342;-60
2023/07/08 04:57:55;;;;;;;8.00;3.20;;;;;;;;;;4972664;28;20240;-61
2023/07/08 05:00:20;;;;;;;6.28;2.90;;;;;;;;;;4972012;28;20221;-60
2023/07/08 05:02:46;;;;;;;6.22;2.92;;;;;;;;;;4972056;28;20527;-61
2023/07/08 05:05:11;;;;;;;5.50;2.97;;;;;;;;;;4972082;28;20220;-61
2023/07/08 05:07:36;;;;;;;4.68;2.83;;;;;;;;;;4972616;28;20237;-61
2023/07/08 05:10:02;;;;;;;5.07;2.83;;;;;;;;;;4971444;28;20214;-61
2023/07/08 05:12:27;;;;;;;5.22;2.70;;;;;;;;;;4954737;28;20642;-61
2023/07/08 05:14:53;;;;;;;5.90;3.03;;;;;;;;;;4972569;28;20251;-60
2023/07/08 05:17:18;;;;;;;6.75;3.10;;;;;;;;;;4971478;28;20334;-60
2023/07/08 05:19:45;;;;;;;4.72;3.03;;;;;;;;;;4972417;28;20217;-60
2023/07/08 05:22:11;;;;;;;9.00;3.00;;;;;;;;;;4972194;28;20289;-61
2023/07/08 05:24:36;;;;;;;7.60;3.15;;;;;;;;;;4971874;28;20719;-61
2023/07/08 05:27:03;;;;;;;7.13;3.10;;;;;;;;;;4972086;28;20225;-61
2023/07/08 05:29:28;;;;;;;6.57;3.13;;;;;;;;;;4972082;28;20209;-61
2023/07/08 05:31:53;;;;;;;8.00;3.10;;;;;;;;;;4971752;28;20221;-61
2023/07/08 05:34:19;;;;;;;5.50;2.90;;;;;;;;;;4971564;28;20297;-61
2023/07/08 05:36:44;;;;;;;5.40;2.70;;;;;;;;;;4972563;28;20210;-61
2023/07/08 05:39:09;;;;;;;6.70;3.13;;;;;;;;;;4971182;28;20701;-60
2023/07/08 05:41:35;;;;;;;5.20;2.70;;;;;;;;;;4971835;28;20214;-61
2023/07/08 05:44:00;;;;;;;5.78;2.83;;;;;;;;;;4971646;28;20220;-61
2023/07/08 05:46:25;;;;;;;5.97;3.00;;;;;;;;;;4971602;28;20595;-61
2023/07/08 05:48:50;;;;;;;5.50;3.08;;;;;;;;;;4971893;28;20214;-61
2023/07/08 05:51:16;;;;;;;7.05;3.30;;;;;;;;;;4971058;28;20221;-61
2023/07/08 05:53:41;;;;;;;4.50;2.90;;;;;;;;;;4971925;28;20281;-61
2023/07/08 05:56:07;;;;;;;8.68;3.60;;;;;;;;;;4971227;28;20293;-61
2023/07/08 05:58:33;;;;;;;6.13;3.58;;;;;;;;;;4971216;28;20246;-61
2023/07/08 06:00:58;;;;;;;7.05;3.00;;;;;;;;;;4971717;28;20891;-61
2023/07/08 06:03:23;;;;;;;6.05;3.00;;;;;;;;;;4968081;28;20218;-61
2023/07/08 06:05:49;;;;;;;6.72;3.40;;;;;;;;;;4971232;28;20213;-61
2023/07/08 06:08:14;;;;;;;5.45;3.08;;;;;;;;;;4970035;28;20614;-60
2023/07/08 06:10:41;;;;;;;7.32;3.47;;;;;;;;;;4971198;28;20213;-61
2023/07/08 06:13:06;;;;;;;6.05;3.28;;;;;;;;;;4969736;28;20300;-60
2023/07/08 06:15:32;;;;;;;5.70;3.28;;;;;;;;;;4970376;28;20293;-60
2023/07/08 06:18:00;;;;;;;9.32;3.20;;;;;;;;;;4970261;28;20596;-61
2023/07/08 06:20:26;;;;;;;7.10;2.95;;;;;;;;;;4970425;28;20217;-61
2023/07/08 06:22:51;;;;;;;5.78;3.17;;;;;;;;;;4971050;28;20300;-61
2023/07/08 06:25:16;;;;;;;5.22;3.13;;;;;;;;;;4953052;28;20349;-61
2023/07/08 06:27:41;;;;;;;4.97;3.35;;;;;;;;;;4970886;28;20213;-61
2023/07/08 06:30:07;;;;;;;6.78;3.53;;;;;;;;;;4970605;28;20249;-60
2023/07/08 06:32:33;;;;;;;5.13;3.30;;;;;;;;;;4971463;28;20206;-61
2023/07/08 06:34:58;;;;;;;8.95;3.30;;;;;;;;;;4970674;28;20769;-61
2023/07/08 06:37:23;;;;;;;9.15;3.50;;;;;;;;;;4970502;28;20216;-60
2023/07/08 06:39:49;;;;;;;6.43;3.58;;;;;;;;;;4971404;28;20217;-60
2023/07/08 06:42:14;;;;;;;8.38;3.75;;;;;;;;;;4970121;28;20218;-61
2023/07/08 06:44:39;;;;;;;5.45;3.22;;;;;;;;;;4971031;28;20209;-61
2023/07/08 06:47:05;;;;;;;5.05;3.38;;;;;;;;;;4970942;28;20249;-61
2023/07/08 06:49:30;;;;;;;7.65;3.20;;;;;;;;;;4969369;28;20673;-61
2023/07/08 06:51:57;;;;;;;5.70;3.33;;;;;;;;;;4971086;28;20245;-61
2023/07/08 06:54:22;;;;;;;5.90;3.45;;;;;;;;;;4970372;28;20217;-61
2023/07/08 06:56:47;;;;;;;8.77;3.50;;;;;;;;;;4970751;28;20236;-61
2023/07/08 06:59:13;;;;;;;6.22;3.60;;;;;;;;;;4970716;28;20234;-60
2023/07/08 07:01:38;;;;;;;5.57;3.28;;;;;;;;;;4970898;28;20209;-61
2023/07/08 07:04:03;;;;;;;7.97;3.40;;;;;;;;;;4970527;28;20217;-60
2023/07/08 07:06:29;;;;;;;6.72;3.10;;;;;;;;;;4971204;28;20214;-61
2023/07/08 07:08:54;;;;;;;5.63;3.20;;;;;;;;;;4970739;28;20681;-60
2023/07/08 07:11:20;;;;;;;5.55;2.92;;;;;;;;;;4970148;28;20658;-61
2023/07/08 07:13:45;;;;;;;7.30;3.00;;;;;;;;;;4971046;28;20248;-60
2023/07/08 07:16:11;;;;;;;7.53;3.20;;;;;;;;;;4969759;28;20218;-61
2023/07/08 07:18:36;;;;;;;7.10;3.05;;;;;;;;;;4970854;28;20248;-61
2023/07/08 07:21:01;;;;;;;5.80;3.42;;;;;;;;;;4970379;28;20296;-60
2023/07/08 07:23:27;;;;;;;7.07;3.70;;;;;;;;;;4970682;28;20692;-61
2023/07/08 07:25:52;;;;;;;5.65;3.13;;;;;;;;;;4970697;28;20724;-61
2023/07/08 07:28:17;;;;;;;8.23;3.30;;;;;;;;;;4970336;28;20707;-61
2023/07/08 07:30:43;;;;;;;6.25;3.20;;;;;;;;;;4970436;28;20283;-61
2023/07/08 07:33:09;;;;;;;7.30;3.20;;;;;;;;;;4970168;28;20210;-61
2023/07/08 07:35:34;;;;;;;4.60;3.03;;;;;;;;;;4972406;28;20237;-61
2023/07/08 07:37:59;;;;;;;6.57;3.40;;;;;;;;;;4973893;28;20229;-61
2023/07/08 07:40:25;;;;;;;10.60;3.63;;;;;;;;;;4973793;28;20252;-61
2023/07/08 07:42:50;;;;;;;5.32;3.45;;;;;;;;;;4974198;28;20267;-61
2023/07/08 07:45:15;;;;;;;9.15;3.50;;;;;;;;;;4973287;28;20216;-61
2023/07/08 07:47:41;;;;;;;10.00;4.00;;;;;;;;;;4974113;28;20704;-61
2023/07/08 07:50:07;;;;;;;7.20;3.30;;;;;;;;;;4973591;28;20280;-61
2023/07/08 07:52:32;;;;;;;6.85;3.42;;;;;;;;;;4973759;28;20218;-61
2023/07/08 07:54:57;;;;;;;5.85;3.47;;;;;;;;;;4973835;28;20218;-61
2023/07/08 07:57:23;;;;;;;9.32;3.50;;;;;;;;;;4973582;28;20242;-61
2023/07/08 07:59:48;;;;;;;7.47;3.10;;;;;;;;;;4973451;28;20229;-61
2023/07/08 08:02:14;;;;;;;5.72;3.47;;;;;;;;;;4973637;28;20218;-61
2023/07/08 08:04:39;;;;;;;6.78;3.50;;;;;;;;;;4973713;28;20214;-61
2023/07/08 08:07:04;;;;;;;5.13;3.80;;;;;;;;;;4973162;28;20249;-61
2023/07/08 08:09:30;;;;;;;6.47;3.58;;;;;;;;;;4973813;28;20677;-61
2023/07/08 08:11:55;;;;;;;8.23;3.65;;;;;;;;;;4973093;28;20225;-61
2023/07/08 08:14:21;;;;;;;5.97;3.58;;;;;;;;;;4973036;28;20245;-61
2023/07/08 08:16:46;;;;;;;8.18;4.10;;;;;;;;;;4973726;28;20724;-61
2023/07/08 08:19:11;;;;;;;7.00;4.05;;;;;;;;;;4972802;28;20372;-61
2023/07/08 08:21:37;;;;;;;5.75;3.42;;;;;;;;;;4973385;28;20553;-61
2023/07/08 08:24:02;;;;;;;7.97;3.72;;;;;;;;;;4973152;28;20241;-61
2023/07/08 08:26:28;;;;;;;6.80;3.80;;;;;;;;;;4972919;28;20239;-61
2023/07/08 08:28:53;;;;;;;7.82;3.80;;;;;;;;;;4973308;28;20253;-61
2023/07/08 08:31:19;;;;;;;5.63;3.63;;;;;;;;;;4972913;28;20237;-61
2023/07/08 08:33:44;;;;;;;6.97;3.55;;;;;;;;;;4972985;28;20595;-61
2023/07/08 08:36:09;;;;;;;7.13;3.60;;;;;;;;;;4972623;28;20308;-61
2023/07/08 08:38:35;;;;;;;9.40;4.35;;;;;;;;;;4973354;28;20304;-61
2023/07/08 08:41:04;;;;;;;7.63;3.80;;;;;;;;;;4972825;28;20287;-61
2023/07/08 08:43:36;;;;;;;8.85;4.20;;;;;;;;;;4972708;28;20293;-61
2023/07/08 08:46:05;;;;;;;9.45;4.30;;;;;;;;;;4954935;28;20222;-61
2023/07/08 08:48:32;;;;;;;5.95;4.10;;;;;;;;;;4972243;28;20293;-61
2023/07/08 08:51:00;;;;;;;7.82;3.95;;;;;;;;;;4955615;28;20503;-61
2023/07/08 08:53:25;;;;;;;7.13;3.97;;;;;;;;;;4955467;28;20232;-61
2023/07/08 08:55:52;;;;;;;8.32;3.83;;;;;;;;;;4972545;28;20238;-61
2023/07/08 08:58:23;;;;;;;9.65;4.20;;;;;;;;;;4954857;28;20233;-61
2023/07/08 09:00:55;;;;;;;6.97;3.65;;;;;;;;;;4972859;28;20218;-61
2023/07/08 09:03:25;;;;;;;5.38;3.55;;;;;;;;;;4972051;28;20222;-61
2023/07/08 09:05:51;;;;;;;8.20;4.05;;;;;;;;;;4955570;28;20222;-61
2023/07/08 09:08:18;;;;;;;6.10;3.63;;;;;;;;;;4971525;28;20524;-61
2023/07/08 09:10:43;;;;;;;6.90;3.90;;;;;;;;;;4972691;28;20284;-61
2023/07/08 09:13:10;;;;;;;5.82;3.78;;;;;;;;;;4972262;28;20693;-61
2023/07/08 09:15:36;;;;;;;7.68;3.40;;;;;;;;;;4972010;28;20218;-61
2023/07/08 09:18:04;;;;;;;9.02;4.03;;;;;;;;;;4954673;28;20226;-61
2023/07/08 09:20:30;;;;;;;6.35;3.70;;;;;;;;;;4955155;28;20221;-61
2023/07/08 09:22:56;;;;;;;9.13;4.03;;;;;;;;;;4971997;28;20225;-61
2023/07/08 09:25:21;;;;;;;9.80;3.67;;;;;;;;;;4971734;28;20272;-61
2023/07/08 09:27:47;;;;;;;7.78;3.88;;;;;;;;;;4972189;28;20614;-61
2023/07/08 09:30:13;;;;;;;9.23;3.90;;;;;;;;;;4970688;28;20240;-61
2023/07/08 09:32:38;;;;;;;7.53;3.88;;;;;;;;;;4970953;28;20595;-61
2023/07/08 09:35:05;;;;;;;8.80;4.40;;;;;;;;;;4971133;28;20213;-61
2023/07/08 09:37:31;;;;;;;10.27;5.10;;;;;;;;;;4971047;28;20209;-61
2023/07/08 09:39:57;;;;;;;9.73;4.28;;;;;;;;;;4971595;28;20245;-61
2023/07/08 09:42:25;;;;;;;7.07;4.30;;;;;;;;;;4971252;28;20242;-62
2023/07/08 09:44:54;;;;;;;13.80;4.50;;;;;;;;;;4954935;28;20304;-61
2023/07/08 09:47:21;;;;;;;7.65;4.47;;;;;;;;;;4969786;28;20419;-61
2023/07/08 09:49:46;;;;;;;6.78;3.92;;;;;;;;;;4971598;28;20230;-61
2023/07/08 09:52:12;;;;;;;5.60;3.63;;;;;;;;;;4970578;28;20248;-61
2023/07/08 09:54:37;;;;;;;6.68;4.40;;;;;;;;;;4971694;28;20206;-61
2023/07/08 09:57:04;;;;;;;7.68;4.22;;;;;;;;;;4971195;28;20333;-62
2023/07/08 09:59:31;;;;;;;7.93;4.60;;;;;;;;;;4969866;28;20228;-61
2023/07/08 10:01:59;;;;;;;7.28;3.70;;;;;;;;;;4971100;28;20218;-61
2023/07/08 10:04:24;;;;;;;8.73;4.10;;;;;;;;;;4970005;28;20224;-61
2023/07/08 10:06:49;;;;;;;7.65;4.07;;;;;;;;;;4953634;28;20222;-61
2023/07/08 10:09:20;;;;;;;7.45;5.10;;;;;;;;;;4970313;28;20217;-61
2023/07/08 10:11:47;;;;;;;10.63;4.90;;;;;;;;;;4970624;28;20692;-61
2023/07/08 10:14:23;;;;;;;6.47;4.45;;;;;;;;;;4970447;28;20353;-61
2023/07/08 10:16:48;;;;;;;8.55;4.03;;;;;;;;;;4952385;28;20205;-61
2023/07/08 10:19:15;;;;;;;7.80;4.30;;;;;;;;;;4968675;28;20256;-61
2023/07/08 10:21:40;;;;;;;8.48;4.28;;;;;;;;;;4970554;28;20253;-61
2023/07/08 10:24:17;;;;;;;8.27;4.68;;;;;;;;;;4970449;28;20217;-61
2023/07/08 10:26:43;;;;;;;8.23;4.38;;;;;;;;;;4970629;28;20296;-62
2023/07/08 10:29:14;;;;;;;9.10;4.13;;;;;;;;;;4970315;28;20345;-61
2023/07/08 10:31:42;;;;;;;8.02;4.50;;;;;;;;;;4970734;28;20232;-61
2023/07/08 10:34:14;;;;;;;6.60;4.15;;;;;;;;;;4952505;28;20214;-61
2023/07/08 10:36:40;;;;;;;8.38;4.28;;;;;;;;;;4970976;28;20210;-61
2023/07/08 10:39:14;;;;;;;10.77;4.38;;;;;;;;;;4970205;28;20811;-61
2023/07/08 10:41:47;;;;;;;7.78;4.47;;;;;;;;;;4970145;28;20213;-61
2023/07/08 10:44:14;;;;;;;6.68;4.90;;;;;;;;;;4953042;28;20214;-61
2023/07/08 10:46:56;;;;;;;9.52;4.70;;;;;;;;;;4970135;28;20876;-62
2023/07/08 10:49:28;;;;;;;7.07;4.40;;;;;;;;;;4968962;28;20229;-61
2023/07/08 10:52:06;;;;;;;8.85;4.95;;;;;;;;;;4970953;28;20874;-62
2023/07/08 10:54:34;;;;;;;8.95;4.60;;;;;;;;;;4953032;28;20221;-61
2023/07/08 10:57:11;;;;;;;7.95;4.93;;;;;;;;;;4953201;28;20214;-61
2023/07/08 10:59:37;;;;;;;7.55;4.63;;;;;;;;;;4953036;28;20233;-61
2023/07/08 11:02:10;;;;;;;8.00;4.55;;;;;;;;;;4969502;28;20525;-60
2023/07/08 11:04:54;;;;;;;9.25;4.72;;;;;;;;;;4953024;28;20550;-59
2023/07/08 11:07:39;;;;;;;16.83;4.53;;;;;;;;;;4970049;28;20324;-60
2023/07/08 11:10:07;;;;;;;8.27;4.80;;;;;;;;;;4970715;28;20237;-59
2023/07/08 11:12:34;;;;;;;6.55;4.43;;;;;;;;;;4956791;28;20264;-59
2023/07/08 11:15:00;;;;;;;9.40;4.93;;;;;;;;;;4973921;28;20205;-60
2023/07/08 11:17:29;;;;;;;7.50;5.60;;;;;;;;;;4973537;28;20214;-59
2023/07/08 11:19:57;;;;;;;8.35;5.00;;;;;;;;;;4974293;28;20590;-60
2023/07/08 11:22:22;;;;;;;10.23;5.38;;;;;;;;;;4973114;28;20224;-60
2023/07/08 11:24:48;;;;;;;6.90;4.65;;;;;;;;;;4973428;28;20202;-60
2023/07/08 11:27:19;;;;;;;10.88;4.68;;;;;;;;;;4973283;28;20687;-59
2023/07/08 11:29:46;;;;;;;8.85;4.78;;;;;;;;;;4956148;28;20214;-59
2023/07/08 11:32:13;;;;;;;10.10;4.72;;;;;;;;;;4953334;28;20216;-59
2023/07/08 11:34:38;;;;;;;8.75;4.60;;;;;;;;;;4956219;28;20210;-60
2023/07/08 11:37:03;;;;;;;10.18;4.95;;;;;;;;;;4955302;28;20249;-60
2023/07/08 11:39:32;;;;;;;8.45;4.57;;;;;;;;;;4973345;28;20241;-60
2023/07/08 11:42:10;;;;;;;8.88;5.05;;;;;;;;;;4973968;28;20727;-60
2023/07/08 11:44:35;;;;;;;8.15;4.65;;;;;;;;;;4972974;28;20214;-60
2023/07/08 11:47:01;;;;;;;8.25;4.80;;;;;;;;;;4972095;28;20269;-59
2023/07/08 11:49:26;;;;;;;8.90;5.10;;;;;;;;;;4973535;28;20229;-59
2023/07/08 11:51:51;;;;;;;10.35;5.50;;;;;;;;;;4955216;28;20301;-59
2023/07/08 11:54:22;;;;;;;7.45;4.80;;;;;;;;;;4955472;28;20632;-59
2023/07/08 11:56:50;;;;;;;9.15;5.28;;;;;;;;;;4972408;28;20304;-59
2023/07/08 11:59:17;;;;;;;7.70;5.05;;;;;;;;;;4972490;28;20635;-59
2023/07/08 12:01:47;;;;;;;6.43;4.20;;;;;;;;;;4955938;28;20261;-59
2023/07/08 12:04:12;;;;;;;7.43;4.95;;;;;;;;;;4972220;28;20685;-59
2023/07/08 12:06:40;;;;;;;9.45;5.10;;;;;;;;;;4973171;28;20213;-59
2023/07/08 12:09:14;;;;;;;8.25;4.43;;;;;;;;;;4959193;28;20342;-59
2023/07/08 12:11:40;;;;;;;10.50;5.00;;;;;;;;;;4972690;28;20631;-59
2023/07/08 12:14:07;;;;;;;9.45;4.90;;;;;;;;;;4971747;28;20745;-59
2023/07/08 12:16:32;;;;;;;8.98;5.15;;;;;;;;;;4956248;28;20739;-59
2023/07/08 12:18:57;;;;;;;7.90;5.13;;;;;;;;;;4955370;28;20238;-59
2023/07/08 12:21:23;;;;;;;7.10;4.45;;;;;;;;;;4954125;28;20689;-59
2023/07/08 12:23:48;;;;;;;7.07;4.97;;;;;;;;;;4973293;28;20304;-59
2023/07/08 12:26:14;;;;;;;8.75;4.70;;;;;;;;;;4972087;28;20704;-59
2023/07/08 12:28:39;;;;;;;9.55;4.90;;;;;;;;;;4973247;28;20699;-59
2023/07/08 12:31:16;;;;;;;7.13;5.15;;;;;;;;;;4972606;28;20233;-59
2023/07/08 12:33:41;;;;;;;7.22;5.00;;;;;;;;;;4972093;28;20264;-59
2023/07/08 12:36:09;;;;;;;7.03;4.88;;;;;;;;;;4955151;28;20693;-59
2023/07/08 12:38:37;;;;;;;8.27;5.15;;;;;;;;;;4972862;28;20245;-59
2023/07/08 12:41:08;;;;;;;10.55;5.40;;;;;;;;;;4954496;28;20577;-59
2023/07/08 12:43:33;;;;;;;8.38;5.15;;;;;;;;;;4955775;28;20251;-59
2023/07/08 12:45:59;;;;;;;8.07;5.07;;;;;;;;;;4972359;28;20353;-59
2023/07/08 12:48:24;;;;;;;8.38;4.95;;;;;;;;;;4971960;28;20218;-59
2023/07/08 12:50:50;;;;;;;9.88;5.05;;;;;;;;;;4972483;28;20677;-59
2023/07/08 12:53:15;;;;;;;6.80;5.20;;;;;;;;;;4971609;28;20588;-60
2023/07/08 12:55:41;;;;;;;9.18;5.60;;;;;;;;;;4972591;28;20210;-61
2023/07/08 12:58:08;;;;;;;8.80;5.10;;;;;;;;;;4971798;28;20593;-61
2023/07/08 13:00:36;;;;;;;7.47;4.60;;;;;;;;;;4955077;28;20206;-61
2023/07/08 13:03:04;;;;;;;9.77;5.10;;;;;;;;;;4971906;28;20280;-61
2023/07/08 13:05:29;;;;;;;8.82;5.20;;;;;;;;;;4972163;28;20561;-61
2023/07/08 13:07:54;;;;;;;8.70;5.22;;;;;;;;;;4971876;28;20206;-61
2023/07/08 13:10:20;;;;;;;8.00;4.78;;;;;;;;;;4960865;28;21820;-61
2023/07/08 13:12:46;;;;;;;6.93;4.65;;;;;;;;;;4972272;28;20263;-61
2023/07/08 13:15:15;;;;;;;8.48;5.03;;;;;;;;;;4971483;28;20598;-61
2023/07/08 13:17:41;;;;;;;8.07;4.82;;;;;;;;;;4971162;28;20210;-61
2023/07/08 13:20:09;;;;;;;8.35;5.43;;;;;;;;;;4970322;28;20730;-61
2023/07/08 13:22:34;;;;;;;8.98;4.72;;;;;;;;;;4953377;28;20276;-61
2023/07/08 13:25:00;;;;;;;6.05;4.88;;;;;;;;;;4954917;28;20268;-61
2023/07/08 13:27:25;;;;;;;11.93;5.40;;;;;;;;;;4971697;28;20214;-61
2023/07/08 13:29:52;;;;;;;9.50;5.50;;;;;;;;;;4971342;28;20316;-61
2023/07/08 13:32:17;;;;;;;12.70;5.63;;;;;;;;;;4965146;28;20214;-61
2023/07/08 13:34:43;;;;;;;8.48;4.93;;;;;;;;;;4948531;28;20218;-61
2023/07/08 13:37:10;;;;;;;9.05;5.35;;;;;;;;;;4944306;28;20214;-61
2023/07/08 13:39:36;;;;;;;10.35;5.10;;;;;;;;;;4960167;28;20775;-61
2023/07/08 13:42:02;;;;;;;8.45;5.10;;;;;;;;;;4955281;28;20246;-61
2023/07/08 13:44:27;;;;;;;9.20;4.63;;;;;;;;;;4946948;28;20296;-61
2023/07/08 13:46:53;;;;;;;13.48;5.82;;;;;;;;;;4947708;28;20222;-61
2023/07/08 13:49:27;;;;;;;11.35;5.28;;;;;;;;;;4949229;28;20301;-61
2023/07/08 13:52:03;;;;;;;10.25;5.43;;;;;;;;;;4947922;28;20250;-61
2023/07/08 13:54:33;;;;;;;9.30;5.15;;;;;;;;;;4947521;28;20206;-61
2023/07/08 13:57:00;;;;;;;7.82;5.30;;;;;;;;;;4941167;28;20273;-61
2023/07/08 13:59:25;;;;;;;8.48;5.32;;;;;;;;;;4940451;28;20257;-61
2023/07/08 14:01:51;;;;;;;8.10;5.10;;;;;;;;;;4941186;28;20789;-61
2023/07/08 14:04:18;;;;;;;7.90;6.22;;;;;;;;;;4957830;28;20336;-61
2023/07/08 14:06:43;;;;;;;10.63;5.18;;;;;;;;;;4959818;28;20237;-61
2023/07/08 14:09:12;;;;;;;9.65;5.40;;;;;;;;;;4946529;28;20202;-61
2023/07/08 14:11:38;;;;;;;12.13;5.60;;;;;;;;;;4949029;28;20248;-61
2023/07/08 14:14:03;;;;;;;10.63;6.30;;;;;;;;;;4945960;28;20227;-61
2023/07/08 14:16:29;;;;;;;8.52;5.88;;;;;;;;;;4949909;28;20249;-61
2023/07/08 14:18:55;;;;;;;8.07;5.40;;;;;;;;;;4941898;28;20475;-61
2023/07/08 14:21:20;;;;;;;9.35;5.55;;;;;;;;;;4956323;28;20226;-61
2023/07/08 14:23:45;;;;;;;9.10;5.60;;;;;;;;;;4958493;28;20719;-61
2023/07/08 14:26:11;;;;;;;8.25;5.72;;;;;;;;;;4961075;28;20213;-61
2023/07/08 14:28:36;;;;;;;9.65;6.13;;;;;;;;;;4964440;28;20217;-61
2023/07/08 14:31:02;;;;;;;9.23;5.50;;;;;;;;;;4964025;28;20238;-61
2023/07/08 14:33:27;;;;;;;8.35;5.22;;;;;;;;;;4964174;28;20229;-61
2023/07/08 14:35:52;;;;;;;8.05;5.25;;;;;;;;;;4964662;28;20756;-61
2023/07/08 14:38:17;;;;;;;8.27;5.13;;;;;;;;;;4945136;28;20234;-61